Time;durP1;ratioP1;P1;durP2;ratioP2;P2;SDS_P1;SDS_P2;PMS_P1;PMS_P2;Temp;Humidity;BMP_temperature;BMP_pressure;BME280_temperature;BME280_humidity;BME280_pressure;Samples;Min_cycle;Max_cycle;Signal;HPM_P1;HPM_P2
2022/07/24 00:00:38;;;;;;;7.43;6.63;;;;;;;;;;5053998;28;20404;-50
2022/07/24 00:03:04;;;;;;;8.47;7.00;;;;;;;;;;5054886;28;20439;-50
2022/07/24 00:05:30;;;;;;;7.47;6.77;;;;;;;;;;5053392;28;20431;-50
2022/07/24 00:07:55;;;;;;;8.33;6.67;;;;;;;;;;5054434;28;20471;-50
2022/07/24 00:10:21;;;;;;;10.60;6.60;;;;;;;;;;5053586;28;20447;-50
2022/07/24 00:12:47;;;;;;;6.90;6.30;;;;;;;;;;5048775;28;20452;-50
2022/07/24 00:15:14;;;;;;;7.53;6.80;;;;;;;;;;5050550;28;20443;-51
2022/07/24 00:17:40;;;;;;;6.67;6.00;;;;;;;;;;5051153;28;20431;-50
2022/07/24 00:20:06;;;;;;;7.70;7.00;;;;;;;;;;5053276;28;20880;-50
2022/07/24 00:22:32;;;;;;;9.30;7.60;;;;;;;;;;5054398;28;20395;-51
2022/07/24 00:24:58;;;;;;;7.13;6.43;;;;;;;;;;5053462;28;20435;-50
2022/07/24 00:27:24;;;;;;;6.90;6.30;;;;;;;;;;5052678;28;20517;-50
2022/07/24 00:29:50;;;;;;;6.57;5.90;;;;;;;;;;5054066;28;20428;-50
2022/07/24 00:32:16;;;;;;;9.03;6.10;;;;;;;;;;5049431;28;20409;-49
2022/07/24 00:34:42;;;;;;;8.50;7.47;;;;;;;;;;5054128;28;21034;-49
2022/07/24 00:37:08;;;;;;;7.90;7.10;;;;;;;;;;5052935;28;20445;-50
2022/07/24 00:39:34;;;;;;;6.70;6.07;;;;;;;;;;5053176;28;20793;-50
2022/07/24 00:42:00;;;;;;;6.70;6.10;;;;;;;;;;5052873;28;20403;-49
2022/07/24 00:44:26;;;;;;;8.20;6.50;;;;;;;;;;5050741;28;20446;-50
2022/07/24 00:46:52;;;;;;;8.17;7.37;;;;;;;;;;5053173;28;20421;-49
2022/07/24 00:49:19;;;;;;;12.23;7.13;;;;;;;;;;5053705;28;20476;-49
2022/07/24 00:51:46;;;;;;;7.90;6.60;;;;;;;;;;5052861;28;20453;-50
2022/07/24 00:54:12;;;;;;;7.17;6.57;;;;;;;;;;5053854;28;20484;-51
2022/07/24 00:56:39;;;;;;;7.17;6.47;;;;;;;;;;5052851;28;20430;-51
2022/07/24 00:59:05;;;;;;;7.60;6.97;;;;;;;;;;5053530;28;20420;-49
2022/07/24 01:01:31;;;;;;;7.93;7.13;;;;;;;;;;5048616;28;20903;-49
2022/07/24 01:03:58;;;;;;;8.13;7.33;;;;;;;;;;5053285;28;20430;-49
2022/07/24 01:06:24;;;;;;;9.20;8.23;;;;;;;;;;5050330;28;20430;-49
2022/07/24 01:08:50;;;;;;;9.67;7.53;;;;;;;;;;5052787;28;20399;-50
2022/07/24 01:11:17;;;;;;;10.63;7.40;;;;;;;;;;5052035;28;20438;-50
2022/07/24 01:13:43;;;;;;;9.33;7.60;;;;;;;;;;5051118;28;20426;-50
2022/07/24 01:16:09;;;;;;;8.17;7.47;;;;;;;;;;5049678;28;20407;-49
2022/07/24 01:18:35;;;;;;;9.50;7.10;;;;;;;;;;5052431;28;20418;-50
2022/07/24 01:21:01;;;;;;;8.57;7.70;;;;;;;;;;5051569;28;20429;-49
2022/07/24 01:23:27;;;;;;;7.57;6.73;;;;;;;;;;5052845;28;20410;-50
2022/07/24 01:25:53;;;;;;;9.23;7.80;;;;;;;;;;5051687;28;20518;-50
2022/07/24 01:28:19;;;;;;;9.63;6.90;;;;;;;;;;5052539;28;20417;-50
2022/07/24 01:30:45;;;;;;;8.50;7.37;;;;;;;;;;5047367;28;20407;-49
2022/07/24 01:33:12;;;;;;;8.03;7.33;;;;;;;;;;5052491;28;20787;-50
2022/07/24 01:35:38;;;;;;;9.53;7.23;;;;;;;;;;5051297;28;20421;-50
2022/07/24 01:38:04;;;;;;;8.00;7.20;;;;;;;;;;5052365;28;20898;-51
2022/07/24 01:40:30;;;;;;;7.77;6.90;;;;;;;;;;5051024;28;20415;-50
2022/07/24 01:42:56;;;;;;;10.43;7.50;;;;;;;;;;5052451;28;20380;-50
2022/07/24 01:45:22;;;;;;;8.33;7.53;;;;;;;;;;5047175;28;20568;-51
2022/07/24 01:47:48;;;;;;;9.97;8.33;;;;;;;;;;5052411;28;20376;-50
2022/07/24 01:50:14;;;;;;;10.20;7.57;;;;;;;;;;5048752;28;20817;-50
2022/07/24 01:52:40;;;;;;;13.50;7.63;;;;;;;;;;5052559;28;20405;-50
2022/07/24 01:55:07;;;;;;;9.57;8.50;;;;;;;;;;5050878;28;20436;-49
2022/07/24 01:57:33;;;;;;;8.67;7.47;;;;;;;;;;5052378;28;20401;-49
2022/07/24 02:00:00;;;;;;;7.77;7.07;;;;;;;;;;5047038;28;20415;-49
2022/07/24 02:02:26;;;;;;;8.03;7.33;;;;;;;;;;5048383;28;20576;-49
2022/07/24 02:04:53;;;;;;;8.37;7.50;;;;;;;;;;5052164;28;20447;-50
2022/07/24 02:07:19;;;;;;;7.83;7.10;;;;;;;;;;5051039;28;20408;-50
2022/07/24 02:09:45;;;;;;;7.70;7.00;;;;;;;;;;5051820;28;20404;-50
2022/07/24 02:12:11;;;;;;;9.00;7.30;;;;;;;;;;5050815;28;20806;-48
2022/07/24 02:14:37;;;;;;;10.40;7.30;;;;;;;;;;5045782;28;20436;-49
2022/07/24 02:17:03;;;;;;;7.63;6.93;;;;;;;;;;5051742;28;20412;-49
2022/07/24 02:19:29;;;;;;;7.70;6.90;;;;;;;;;;5050543;28;20441;-50
2022/07/24 02:21:55;;;;;;;8.23;7.33;;;;;;;;;;5051723;28;20417;-50
2022/07/24 02:24:22;;;;;;;8.00;7.10;;;;;;;;;;5046666;28;20419;-49
2022/07/24 02:26:48;;;;;;;7.30;6.37;;;;;;;;;;5046654;28;20434;-49
2022/07/24 02:29:14;;;;;;;7.83;7.23;;;;;;;;;;5033694;28;20445;-50
2022/07/24 02:31:40;;;;;;;7.57;6.97;;;;;;;;;;5051578;28;20818;-50
2022/07/24 02:34:06;;;;;;;9.30;6.97;;;;;;;;;;5050319;28;20493;-51
2022/07/24 02:36:32;;;;;;;6.97;6.37;;;;;;;;;;5051770;28;20378;-50
2022/07/24 02:38:58;;;;;;;7.40;6.70;;;;;;;;;;5049778;28;20437;-49
2022/07/24 02:41:24;;;;;;;8.87;7.10;;;;;;;;;;5047800;28;21006;-49
2022/07/24 02:43:50;;;;;;;14.40;6.70;;;;;;;;;;5049676;28;20402;-49
2022/07/24 02:46:16;;;;;;;6.73;6.00;;;;;;;;;;5051412;28;20418;-50
2022/07/24 02:48:42;;;;;;;6.70;6.10;;;;;;;;;;5049878;28;20486;-50
2022/07/24 02:51:08;;;;;;;6.57;6.07;;;;;;;;;;5051276;28;20423;-50
2022/07/24 02:53:34;;;;;;;8.70;6.90;;;;;;;;;;5051341;28;20490;-50
2022/07/24 02:56:00;;;;;;;7.57;6.87;;;;;;;;;;5046518;28;20436;-49
2022/07/24 02:58:26;;;;;;;7.57;6.77;;;;;;;;;;5051140;28;20400;-50
2022/07/24 03:00:52;;;;;;;7.40;6.73;;;;;;;;;;5046260;28;20425;-49
2022/07/24 03:03:18;;;;;;;7.53;6.83;;;;;;;;;;5051237;28;20408;-51
2022/07/24 03:05:43;;;;;;;10.33;7.30;;;;;;;;;;5050131;28;20479;-50
2022/07/24 03:08:09;;;;;;;10.60;6.63;;;;;;;;;;5050934;28;20447;-49
2022/07/24 03:10:35;;;;;;;6.20;5.70;;;;;;;;;;5047675;28;21129;-49
2022/07/24 03:13:01;;;;;;;16.73;6.93;;;;;;;;;;5051018;28;20376;-49
2022/07/24 03:15:28;;;;;;;9.60;6.80;;;;;;;;;;5049409;28;20487;-49
2022/07/24 03:17:55;;;;;;;7.43;6.73;;;;;;;;;;5050870;28;20380;-49
2022/07/24 03:20:22;;;;;;;8.20;7.40;;;;;;;;;;5048602;28;20425;-50
2022/07/24 03:22:49;;;;;;;7.60;6.90;;;;;;;;;;5050980;28;20384;-50
2022/07/24 03:25:15;;;;;;;7.07;6.47;;;;;;;;;;5046010;28;20906;-50
2022/07/24 03:27:41;;;;;;;8.50;7.70;;;;;;;;;;5050990;28;20376;-50
2022/07/24 03:30:08;;;;;;;8.00;7.20;;;;;;;;;;5048819;28;20404;-50
2022/07/24 03:32:34;;;;;;;8.80;7.70;;;;;;;;;;5051145;28;20463;-51
2022/07/24 03:35:00;;;;;;;8.30;6.80;;;;;;;;;;5049696;28;20460;-50
2022/07/24 03:37:26;;;;;;;7.07;6.40;;;;;;;;;;5051054;28;20441;-50
2022/07/24 03:39:52;;;;;;;8.30;7.07;;;;;;;;;;5046924;28;20435;-50
2022/07/24 03:42:18;;;;;;;7.77;7.07;;;;;;;;;;5050890;28;20772;-50
2022/07/24 03:44:44;;;;;;;8.80;7.90;;;;;;;;;;5049577;28;20448;-50
2022/07/24 03:47:10;;;;;;;8.20;6.90;;;;;;;;;;5050637;28;20389;-51
2022/07/24 03:49:36;;;;;;;9.40;8.33;;;;;;;;;;5049354;28;20460;-51
2022/07/24 03:52:02;;;;;;;10.73;7.97;;;;;;;;;;5050684;28;20435;-50
2022/07/24 03:54:28;;;;;;;12.33;9.20;;;;;;;;;;5045950;28;20523;-50
2022/07/24 03:56:54;;;;;;;8.07;7.30;;;;;;;;;;5050660;28;20925;-50
2022/07/24 03:59:20;;;;;;;7.57;6.87;;;;;;;;;;5046414;28;20874;-50
2022/07/24 04:01:46;;;;;;;7.63;6.70;;;;;;;;;;5046069;28;20429;-50
2022/07/24 04:04:12;;;;;;;7.93;7.10;;;;;;;;;;5049460;28;20376;-50
2022/07/24 04:06:38;;;;;;;10.00;6.77;;;;;;;;;;5048610;28;20480;-50
2022/07/24 04:09:05;;;;;;;7.10;6.50;;;;;;;;;;5050226;28;20940;-50
2022/07/24 04:11:31;;;;;;;8.63;7.20;;;;;;;;;;5049360;28;20431;-50
2022/07/24 04:13:57;;;;;;;7.30;6.63;;;;;;;;;;5051957;28;20462;-50
2022/07/24 04:16:23;;;;;;;7.93;7.20;;;;;;;;;;5051609;28;20441;-49
2022/07/24 04:18:49;;;;;;;6.70;6.13;;;;;;;;;;5050134;28;20431;-50
2022/07/24 04:21:16;;;;;;;7.47;6.77;;;;;;;;;;5053039;28;20372;-50
2022/07/24 04:23:42;;;;;;;8.40;6.17;;;;;;;;;;5052923;28;20444;-50
2022/07/24 04:26:08;;;;;;;7.63;7.00;;;;;;;;;;5053777;28;20434;-49
2022/07/24 04:28:34;;;;;;;7.80;6.50;;;;;;;;;;5052794;28;20481;-51
2022/07/24 04:31:00;;;;;;;7.50;6.87;;;;;;;;;;5051852;28;20885;-50
2022/07/24 04:33:26;;;;;;;8.67;6.13;;;;;;;;;;5050182;28;20380;-50
2022/07/24 04:35:51;;;;;;;7.70;6.40;;;;;;;;;;5052259;28;20952;-50
2022/07/24 04:38:17;;;;;;;8.27;6.43;;;;;;;;;;5053327;28;20410;-51
2022/07/24 04:40:44;;;;;;;9.40;8.50;;;;;;;;;;5052772;28;20448;-51
2022/07/24 04:43:10;;;;;;;8.47;7.00;;;;;;;;;;5053674;28;20417;-51
2022/07/24 04:45:36;;;;;;;7.33;6.73;;;;;;;;;;5049327;28;20860;-51
2022/07/24 04:48:02;;;;;;;7.27;6.63;;;;;;;;;;5053080;28;20434;-50
2022/07/24 04:50:28;;;;;;;8.27;7.47;;;;;;;;;;5053302;28;20856;-50
2022/07/24 04:52:54;;;;;;;8.10;7.30;;;;;;;;;;5052307;28;20414;-51
2022/07/24 04:55:20;;;;;;;7.73;7.03;;;;;;;;;;5053406;28;20426;-50
2022/07/24 04:57:46;;;;;;;8.47;6.40;;;;;;;;;;5050349;28;20437;-50
2022/07/24 05:00:13;;;;;;;6.67;6.07;;;;;;;;;;5050034;28;20390;-50
2022/07/24 05:02:39;;;;;;;7.93;7.13;;;;;;;;;;5051791;28;20476;-49
2022/07/24 05:05:05;;;;;;;8.47;7.67;;;;;;;;;;5044711;28;20400;-51
2022/07/24 05:07:31;;;;;;;7.73;6.30;;;;;;;;;;5033416;28;20380;-51
2022/07/24 05:09:58;;;;;;;8.70;6.30;;;;;;;;;;5038057;28;20448;-50
2022/07/24 05:12:24;;;;;;;7.33;6.73;;;;;;;;;;5053462;28;20415;-50
2022/07/24 05:14:50;;;;;;;6.40;5.80;;;;;;;;;;5051719;28;20487;-51
2022/07/24 05:17:16;;;;;;;7.43;6.50;;;;;;;;;;5051698;28;20802;-50
2022/07/24 05:19:42;;;;;;;7.57;6.30;;;;;;;;;;5048091;28;20432;-50
2022/07/24 05:22:08;;;;;;;6.40;5.77;;;;;;;;;;5052926;28;20379;-50
2022/07/24 05:24:34;;;;;;;7.97;7.17;;;;;;;;;;5051534;28;20485;-51
2022/07/24 05:27:00;;;;;;;7.00;6.30;;;;;;;;;;5052955;28;20412;-51
2022/07/24 05:29:26;;;;;;;8.77;6.67;;;;;;;;;;5051382;28;21004;-51
2022/07/24 05:31:54;;;;;;;6.80;6.20;;;;;;;;;;5037138;28;20433;-50
2022/07/24 05:34:20;;;;;;;7.23;6.13;;;;;;;;;;5052751;28;20597;-50
2022/07/24 05:36:46;;;;;;;7.23;6.60;;;;;;;;;;5051620;28;20391;-50
2022/07/24 05:39:12;;;;;;;8.13;6.13;;;;;;;;;;5052274;28;20419;-50
2022/07/24 05:41:38;;;;;;;12.47;6.70;;;;;;;;;;5051619;28;20410;-50
2022/07/24 05:44:04;;;;;;;8.10;6.27;;;;;;;;;;5052585;28;20395;-51
2022/07/24 05:46:30;;;;;;;6.23;5.63;;;;;;;;;;5035862;28;21033;-51
2022/07/24 05:48:56;;;;;;;6.63;5.80;;;;;;;;;;5032232;28;20513;-50
2022/07/24 05:51:22;;;;;;;6.70;5.03;;;;;;;;;;5040161;28;20517;-50
2022/07/24 05:53:47;;;;;;;6.83;6.30;;;;;;;;;;5052294;28;20459;-50
2022/07/24 05:56:13;;;;;;;6.33;5.10;;;;;;;;;;5051401;28;20436;-49
2022/07/24 05:58:39;;;;;;;5.83;5.20;;;;;;;;;;5044217;28;20445;-49
2022/07/24 06:01:06;;;;;;;8.73;6.60;;;;;;;;;;5050866;28;20435;-50
2022/07/24 06:03:31;;;;;;;6.37;5.73;;;;;;;;;;5052377;28;20434;-51
2022/07/24 06:05:57;;;;;;;5.87;5.37;;;;;;;;;;5050951;28;20908;-50
2022/07/24 06:08:23;;;;;;;5.73;5.17;;;;;;;;;;5051824;28;20428;-51
2022/07/24 06:10:49;;;;;;;8.73;4.90;;;;;;;;;;5050386;28;20431;-50
2022/07/24 06:13:15;;;;;;;5.13;4.73;;;;;;;;;;5052252;28;20954;-49
2022/07/24 06:15:41;;;;;;;5.63;5.07;;;;;;;;;;5050894;28;20425;-50
2022/07/24 06:18:07;;;;;;;4.20;3.90;;;;;;;;;;5052168;28;20761;-51
2022/07/24 06:20:33;;;;;;;4.60;4.30;;;;;;;;;;5050648;28;20520;-51
2022/07/24 06:22:59;;;;;;;6.30;4.63;;;;;;;;;;5051776;28;20646;-49
2022/07/24 06:25:25;;;;;;;7.13;5.30;;;;;;;;;;5045495;28;20736;-50
2022/07/24 06:27:53;;;;;;;5.23;4.60;;;;;;;;;;5051861;28;20399;-50
2022/07/24 06:30:21;;;;;;;8.53;4.30;;;;;;;;;;5050406;28;20488;-50
2022/07/24 06:32:47;;;;;;;5.70;5.30;;;;;;;;;;5051631;28;20415;-50
2022/07/24 06:35:14;;;;;;;5.40;4.10;;;;;;;;;;5050399;28;20934;-49
2022/07/24 06:37:40;;;;;;;4.40;4.10;;;;;;;;;;5051193;28;20408;-49
2022/07/24 06:40:06;;;;;;;4.53;4.20;;;;;;;;;;5046214;28;20443;-51
2022/07/24 06:42:32;;;;;;;4.60;4.30;;;;;;;;;;5050723;28;20481;-49
2022/07/24 06:44:58;;;;;;;5.30;4.90;;;;;;;;;;5051465;28;20404;-50
2022/07/24 06:47:25;;;;;;;4.77;4.37;;;;;;;;;;5050394;28;20932;-49
2022/07/24 06:49:52;;;;;;;4.77;3.73;;;;;;;;;;5050898;28;20481;-49
2022/07/24 06:52:17;;;;;;;4.87;4.47;;;;;;;;;;5050218;28;20437;-51
2022/07/24 06:54:43;;;;;;;5.17;4.40;;;;;;;;;;5047309;28;20557;-50
2022/07/24 06:57:09;;;;;;;4.93;4.50;;;;;;;;;;5049453;28;20421;-51
2022/07/24 06:59:35;;;;;;;7.10;4.17;;;;;;;;;;5051071;28;20425;-50
2022/07/24 07:02:01;;;;;;;4.70;4.27;;;;;;;;;;5050228;28;20487;-50
2022/07/24 07:04:27;;;;;;;5.53;4.97;;;;;;;;;;5033970;28;20421;-50
2022/07/24 07:06:53;;;;;;;4.77;4.47;;;;;;;;;;5030032;28;20425;-51
2022/07/24 07:09:19;;;;;;;4.63;4.33;;;;;;;;;;5031036;28;20434;-51
2022/07/24 07:11:45;;;;;;;4.77;4.27;;;;;;;;;;5031213;28;20418;-51
2022/07/24 07:14:11;;;;;;;4.53;4.13;;;;;;;;;;5049308;28;20513;-50
2022/07/24 07:16:37;;;;;;;4.60;4.20;;;;;;;;;;5035697;28;20418;-50
2022/07/24 07:19:03;;;;;;;7.57;5.03;;;;;;;;;;5036834;28;20936;-50
2022/07/24 07:21:29;;;;;;;4.00;3.70;;;;;;;;;;5049616;28;20507;-51
2022/07/24 07:23:55;;;;;;;4.30;4.00;;;;;;;;;;5039478;28;20420;-50
2022/07/24 07:26:21;;;;;;;4.00;3.70;;;;;;;;;;5038597;28;20436;-50
2022/07/24 07:28:47;;;;;;;4.20;3.90;;;;;;;;;;5030144;28;21038;-50
2022/07/24 07:31:13;;;;;;;4.60;4.30;;;;;;;;;;5043894;28;20435;-50
2022/07/24 07:33:39;;;;;;;4.83;4.30;;;;;;;;;;5044612;28;20548;-51
2022/07/24 07:36:05;;;;;;;4.57;4.17;;;;;;;;;;5042877;28;20916;-50
2022/07/24 07:38:31;;;;;;;4.53;3.83;;;;;;;;;;5045552;28;20445;-52
2022/07/24 07:40:57;;;;;;;7.50;3.80;;;;;;;;;;5041099;28;20431;-50
2022/07/24 07:43:23;;;;;;;5.23;4.53;;;;;;;;;;5047986;28;20429;-51
2022/07/24 07:45:49;;;;;;;4.23;3.83;;;;;;;;;;5040942;28;20440;-51
2022/07/24 07:48:16;;;;;;;4.60;4.27;;;;;;;;;;5049856;28;20851;-50
2022/07/24 07:50:42;;;;;;;4.20;3.90;;;;;;;;;;5045787;28;20433;-50
2022/07/24 07:53:08;;;;;;;7.20;4.43;;;;;;;;;;5054493;28;20394;-50
2022/07/24 07:55:34;;;;;;;4.90;4.40;;;;;;;;;;5036187;28;20454;-50
2022/07/24 07:58:01;;;;;;;4.40;4.10;;;;;;;;;;5034215;28;20430;-50
2022/07/24 08:00:27;;;;;;;5.30;4.80;;;;;;;;;;5042210;28;20454;-50
2022/07/24 08:02:53;;;;;;;6.53;4.33;;;;;;;;;;5049929;28;20403;-51
2022/07/24 08:05:19;;;;;;;4.33;4.00;;;;;;;;;;5036923;28;20420;-50
2022/07/24 08:07:45;;;;;;;4.27;3.97;;;;;;;;;;5034417;28;20874;-51
2022/07/24 08:10:11;;;;;;;5.20;3.83;;;;;;;;;;5044335;28;20942;-51
2022/07/24 08:12:38;;;;;;;4.27;3.87;;;;;;;;;;5049396;28;20780;-51
2022/07/24 08:15:04;;;;;;;4.27;3.87;;;;;;;;;;5037468;28;20456;-50
2022/07/24 08:17:30;;;;;;;4.63;4.20;;;;;;;;;;5053881;28;20413;-50
2022/07/24 08:19:56;;;;;;;3.80;3.50;;;;;;;;;;5046208;28;20494;-51
2022/07/24 08:22:22;;;;;;;3.67;3.37;;;;;;;;;;5043553;28;20905;-51
2022/07/24 08:24:48;;;;;;;5.23;3.50;;;;;;;;;;5038030;28;20826;-50
2022/07/24 08:27:14;;;;;;;4.90;4.50;;;;;;;;;;5053854;28;20409;-51
2022/07/24 08:29:40;;;;;;;4.90;3.87;;;;;;;;;;5050332;28;20224;-50
2022/07/24 08:32:06;;;;;;;3.97;3.67;;;;;;;;;;5053582;28;21012;-50
2022/07/24 08:34:32;;;;;;;4.03;3.73;;;;;;;;;;5046991;28;20500;-51
2022/07/24 08:36:58;;;;;;;5.70;4.60;;;;;;;;;;5034125;28;20485;-50
2022/07/24 08:39:24;;;;;;;3.80;3.50;;;;;;;;;;5035394;28;20469;-51
2022/07/24 08:41:50;;;;;;;4.30;3.90;;;;;;;;;;5052647;28;20174;-51
2022/07/24 08:44:16;;;;;;;3.70;3.40;;;;;;;;;;5047314;28;20917;-51
2022/07/24 08:46:42;;;;;;;3.37;3.07;;;;;;;;;;5046114;28;20433;-51
2022/07/24 08:49:11;;;;;;;3.70;3.40;;;;;;;;;;5052835;28;20424;-52
2022/07/24 08:51:37;;;;;;;3.60;3.30;;;;;;;;;;5045496;28;20429;-51
2022/07/24 08:54:05;;;;;;;5.13;3.83;;;;;;;;;;5051825;28;20960;-51
2022/07/24 08:56:33;;;;;;;3.57;3.23;;;;;;;;;;5049925;28;20444;-51
2022/07/24 08:58:59;;;;;;;3.80;3.60;;;;;;;;;;5052650;28;20758;-51
2022/07/24 09:01:25;;;;;;;3.43;3.20;;;;;;;;;;5033633;28;20517;-51
2022/07/24 09:03:51;;;;;;;3.47;3.27;;;;;;;;;;5033364;28;20406;-50
2022/07/24 09:06:17;;;;;;;4.20;3.90;;;;;;;;;;5033268;28;20487;-50
2022/07/24 09:08:56;;;;;;;3.83;3.40;;;;;;;;;;5033266;28;20453;-49
2022/07/24 09:11:22;;;;;;;4.50;3.90;;;;;;;;;;5033725;28;20778;-49
2022/07/24 09:16:36;;;;;;;4.67;4.03;;;;;;;;;;5033807;28;20417;-49
2022/07/24 09:19:13;;;;;;;3.80;3.33;;;;;;;;;;5046591;28;20452;-49
2022/07/24 09:21:40;;;;;;;3.80;3.60;;;;;;;;;;5034089;28;20410;-49
2022/07/24 09:24:13;;;;;;;4.60;4.30;;;;;;;;;;5040241;28;20459;-50
2022/07/24 09:26:44;;;;;;;5.27;4.00;;;;;;;;;;5032347;28;20921;-49
2022/07/24 09:29:11;;;;;;;3.80;3.60;;;;;;;;;;5031823;28;20967;-49
2022/07/24 09:31:57;;;;;;;4.93;4.20;;;;;;;;;;5032896;28;20808;-49
2022/07/24 09:34:28;;;;;;;4.20;3.90;;;;;;;;;;5031699;28;20465;-49
2022/07/24 09:36:58;;;;;;;4.10;3.80;;;;;;;;;;5012885;28;20809;-49
2022/07/24 09:39:28;;;;;;;3.63;3.43;;;;;;;;;;5019604;28;20454;-49
2022/07/24 09:41:55;;;;;;;3.90;3.50;;;;;;;;;;5032915;28;20399;-49
2022/07/24 09:44:23;;;;;;;4.03;3.83;;;;;;;;;;5033528;28;20422;-50
2022/07/24 09:46:55;;;;;;;4.20;3.90;;;;;;;;;;5032298;28;20468;-49
2022/07/24 09:49:21;;;;;;;6.80;4.07;;;;;;;;;;5028689;28;20446;-49
2022/07/24 09:52:07;;;;;;;4.70;4.30;;;;;;;;;;5042828;28;20436;-49
2022/07/24 09:54:39;;;;;;;4.07;3.87;;;;;;;;;;5047231;28;20462;-49
2022/07/24 09:57:25;;;;;;;4.17;3.87;;;;;;;;;;5032103;28;20402;-49
2022/07/24 09:59:55;;;;;;;5.07;4.40;;;;;;;;;;5032083;28;20452;-49
2022/07/24 10:02:22;;;;;;;5.47;4.13;;;;;;;;;;5032247;28;20402;-50
2022/07/24 10:04:50;;;;;;;4.77;4.00;;;;;;;;;;5037603;28;20535;-51
2022/07/24 10:07:17;;;;;;;4.17;3.87;;;;;;;;;;5051931;28;20488;-49
2022/07/24 10:09:45;;;;;;;4.30;3.90;;;;;;;;;;5045854;28;20469;-49
2022/07/24 10:12:15;;;;;;;4.33;4.03;;;;;;;;;;5032601;28;20435;-49
2022/07/24 10:14:43;;;;;;;3.90;3.60;;;;;;;;;;5012122;28;20459;-49
2022/07/24 10:17:11;;;;;;;8.00;4.67;;;;;;;;;;5012788;28;20566;-49
2022/07/24 10:19:40;;;;;;;6.80;4.50;;;;;;;;;;5031678;28;20820;-49
2022/07/24 10:22:10;;;;;;;4.00;3.70;;;;;;;;;;5050482;28;20405;-49
2022/07/24 10:24:36;;;;;;;4.10;3.80;;;;;;;;;;5047408;28;20426;-49
2022/07/24 10:27:04;;;;;;;4.07;3.67;;;;;;;;;;5048099;28;20423;-49
2022/07/24 10:29:32;;;;;;;4.17;3.57;;;;;;;;;;5032419;28;20445;-49
2022/07/24 10:31:58;;;;;;;4.43;4.13;;;;;;;;;;5039430;28;20460;-49
2022/07/24 10:34:24;;;;;;;3.90;3.70;;;;;;;;;;5033677;28;20544;-49
2022/07/24 10:36:58;;;;;;;3.80;3.60;;;;;;;;;;5038087;28;20984;-50
2022/07/24 10:39:31;;;;;;;4.30;4.00;;;;;;;;;;5036313;28;20206;-49
2022/07/24 10:42:02;;;;;;;5.40;4.90;;;;;;;;;;5049721;28;20429;-49
2022/07/24 10:44:28;;;;;;;3.70;3.50;;;;;;;;;;5033093;28;21017;-49
2022/07/24 10:46:58;;;;;;;4.50;4.03;;;;;;;;;;5037299;28;20507;-50
2022/07/24 10:49:44;;;;;;;3.70;3.40;;;;;;;;;;5030216;28;20470;-50
2022/07/24 10:52:30;;;;;;;4.50;4.20;;;;;;;;;;5039246;28;20448;-49
2022/07/24 10:55:15;;;;;;;4.10;3.80;;;;;;;;;;5045383;28;20960;-50
2022/07/24 10:58:00;;;;;;;4.37;4.03;;;;;;;;;;5050911;28;20405;-50
2022/07/24 11:00:37;;;;;;;4.40;4.00;;;;;;;;;;5049890;28;20503;-49
2022/07/24 11:03:05;;;;;;;4.00;3.70;;;;;;;;;;5051230;28;20393;-49
2022/07/24 11:05:31;;;;;;;4.23;3.93;;;;;;;;;;5048162;28;20787;-49
2022/07/24 11:08:12;;;;;;;4.37;4.07;;;;;;;;;;5048397;28;20449;-49
2022/07/24 11:10:48;;;;;;;4.33;3.77;;;;;;;;;;5046942;28;20429;-49
2022/07/24 11:13:32;;;;;;;4.43;4.00;;;;;;;;;;5050106;28;20433;-49
2022/07/24 11:16:10;;;;;;;4.20;3.90;;;;;;;;;;5050851;28;20413;-49
2022/07/24 11:19:03;;;;;;;4.30;3.93;;;;;;;;;;5049752;28;20441;-48
2022/07/24 11:21:35;;;;;;;4.40;4.20;;;;;;;;;;5051162;28;20401;-49
2022/07/24 11:24:27;;;;;;;3.77;3.57;;;;;;;;;;5049894;28;20500;-49
2022/07/24 11:26:57;;;;;;;4.00;3.60;;;;;;;;;;5054956;28;20417;-49
2022/07/24 11:29:27;;;;;;;4.10;3.80;;;;;;;;;;5053621;28;20428;-49
2022/07/24 11:32:04;;;;;;;4.37;4.07;;;;;;;;;;5055045;28;20480;-48
2022/07/24 11:34:31;;;;;;;4.63;3.73;;;;;;;;;;5051864;28;20465;-49
2022/07/24 11:36:58;;;;;;;6.60;4.40;;;;;;;;;;5054648;28;20397;-50
2022/07/24 11:39:34;;;;;;;4.50;4.20;;;;;;;;;;5052850;28;20937;-49
2022/07/24 11:42:01;;;;;;;3.77;3.57;;;;;;;;;;5054651;28;20401;-49
2022/07/24 11:44:28;;;;;;;5.87;3.97;;;;;;;;;;5053835;28;20464;-49
2022/07/24 11:46:56;;;;;;;4.13;3.80;;;;;;;;;;5054636;28;20441;-50
2022/07/24 11:49:26;;;;;;;4.50;4.00;;;;;;;;;;5053368;28;20856;-49
2022/07/24 11:51:53;;;;;;;3.67;3.47;;;;;;;;;;5047617;28;20421;-48
2022/07/24 11:54:23;;;;;;;3.87;3.57;;;;;;;;;;5054627;28;20488;-49
2022/07/24 11:56:50;;;;;;;4.40;3.97;;;;;;;;;;5053013;28;20503;-48
2022/07/24 11:59:22;;;;;;;3.37;3.13;;;;;;;;;;5054165;28;20470;-48
2022/07/24 12:01:49;;;;;;;4.50;4.20;;;;;;;;;;5021683;28;20915;-49
2022/07/24 12:04:19;;;;;;;3.83;3.53;;;;;;;;;;5024050;28;20429;-50
2022/07/24 12:06:45;;;;;;;4.63;4.27;;;;;;;;;;5043392;28;20508;-49
2022/07/24 12:09:11;;;;;;;3.97;3.50;;;;;;;;;;5033985;28;20468;-49
2022/07/24 12:11:37;;;;;;;4.00;3.70;;;;;;;;;;5037262;28;20453;-50
2022/07/24 12:14:14;;;;;;;5.43;3.60;;;;;;;;;;5034238;28;20214;-48
2022/07/24 12:16:40;;;;;;;4.20;3.90;;;;;;;;;;5050241;28;20452;-49
2022/07/24 12:19:19;;;;;;;3.80;3.60;;;;;;;;;;5035209;28;20414;-49
2022/07/24 12:21:46;;;;;;;3.40;3.20;;;;;;;;;;5034231;28;20458;-48
2022/07/24 12:24:12;;;;;;;3.60;3.40;;;;;;;;;;5033485;28;20398;-50
2022/07/24 12:26:51;;;;;;;4.23;3.87;;;;;;;;;;5045954;28;20421;-49
2022/07/24 12:29:17;;;;;;;4.40;4.00;;;;;;;;;;5033784;28;20428;-50
2022/07/24 12:31:44;;;;;;;4.13;3.83;;;;;;;;;;5033114;28;20830;-50
2022/07/24 12:34:10;;;;;;;5.87;5.37;;;;;;;;;;5031787;28;20504;-50
2022/07/24 12:36:37;;;;;;;4.43;4.03;;;;;;;;;;5043157;28;20426;-49
2022/07/24 12:39:04;;;;;;;4.30;3.90;;;;;;;;;;5032842;28;20871;-49
2022/07/24 12:41:31;;;;;;;5.63;3.57;;;;;;;;;;5045621;28;20429;-50
2022/07/24 12:44:02;;;;;;;3.57;3.37;;;;;;;;;;5053424;28;20420;-49
2022/07/24 12:46:34;;;;;;;4.27;3.87;;;;;;;;;;5032838;28;20434;-49
2022/07/24 12:49:00;;;;;;;4.37;4.03;;;;;;;;;;5033167;28;20499;-49
2022/07/24 12:51:27;;;;;;;4.40;4.10;;;;;;;;;;5045399;28;20519;-49
2022/07/24 12:53:54;;;;;;;3.93;3.73;;;;;;;;;;5034157;28;20291;-50
2022/07/24 12:56:20;;;;;;;4.20;3.80;;;;;;;;;;5034631;28;20429;-50
2022/07/24 12:58:52;;;;;;;4.07;3.67;;;;;;;;;;5033121;28;20932;-49
2022/07/24 13:01:19;;;;;;;3.07;2.90;;;;;;;;;;5032755;28;20425;-49
2022/07/24 13:03:59;;;;;;;3.67;3.37;;;;;;;;;;5053187;28;20407;-48
2022/07/24 13:06:35;;;;;;;4.07;3.57;;;;;;;;;;5041988;28;21072;-50
2022/07/24 13:09:01;;;;;;;4.23;3.83;;;;;;;;;;5037436;28;20456;-49
2022/07/24 13:11:27;;;;;;;3.77;3.40;;;;;;;;;;5032480;28;20423;-49
2022/07/24 13:13:53;;;;;;;4.47;4.00;;;;;;;;;;5040427;28;21300;-49
2022/07/24 13:16:19;;;;;;;4.23;3.90;;;;;;;;;;5033282;28;20425;-50
2022/07/24 13:18:46;;;;;;;4.30;4.00;;;;;;;;;;5047015;28;20201;-50
2022/07/24 13:21:12;;;;;;;3.60;3.40;;;;;;;;;;5052869;28;20405;-50
2022/07/24 13:23:37;;;;;;;4.50;4.10;;;;;;;;;;5046156;28;20788;-50
2022/07/24 13:26:03;;;;;;;3.47;3.27;;;;;;;;;;5039467;28;20187;-50
2022/07/24 13:28:29;;;;;;;3.57;3.37;;;;;;;;;;5032396;28;20265;-50
2022/07/24 13:30:55;;;;;;;4.27;3.87;;;;;;;;;;5036577;28;20254;-49
2022/07/24 13:33:21;;;;;;;3.57;3.27;;;;;;;;;;5042016;28;20592;-50
2022/07/24 13:35:47;;;;;;;6.27;4.70;;;;;;;;;;5045302;28;20295;-49
2022/07/24 13:38:13;;;;;;;4.97;4.57;;;;;;;;;;5032401;28;20187;-50
2022/07/24 13:40:39;;;;;;;4.20;3.87;;;;;;;;;;5033409;28;20428;-48
2022/07/24 13:43:05;;;;;;;3.53;3.33;;;;;;;;;;5032359;28;20505;-49
2022/07/24 13:45:31;;;;;;;4.07;3.77;;;;;;;;;;5035172;28;20221;-48
2022/07/24 13:47:57;;;;;;;3.87;3.57;;;;;;;;;;5032047;28;20203;-49
2022/07/24 13:50:23;;;;;;;4.27;3.87;;;;;;;;;;5034495;28;20578;-48
2022/07/24 13:52:49;;;;;;;3.90;3.60;;;;;;;;;;5052333;28;20472;-48
2022/07/24 13:55:15;;;;;;;4.57;4.13;;;;;;;;;;5036073;28;20457;-50
2022/07/24 13:57:41;;;;;;;6.70;4.33;;;;;;;;;;5033482;28;20593;-49
2022/07/24 14:00:07;;;;;;;5.00;4.00;;;;;;;;;;5030878;28;20179;-50
2022/07/24 14:02:33;;;;;;;3.97;3.67;;;;;;;;;;5032296;28;20418;-49
2022/07/24 14:04:59;;;;;;;4.03;3.83;;;;;;;;;;5030177;28;20510;-50
2022/07/24 14:07:26;;;;;;;4.17;3.73;;;;;;;;;;5032060;28;20406;-50
2022/07/24 14:09:52;;;;;;;7.37;6.77;;;;;;;;;;5034031;28;20290;-49
2022/07/24 14:12:18;;;;;;;3.17;2.93;;;;;;;;;;5051901;28;20401;-49
2022/07/24 14:14:44;;;;;;;4.30;3.70;;;;;;;;;;5044998;28;20460;-49
2022/07/24 14:17:10;;;;;;;3.77;3.57;;;;;;;;;;5051386;28;20410;-49
2022/07/24 14:19:36;;;;;;;4.83;4.10;;;;;;;;;;5032623;28;20442;-49
2022/07/24 14:22:02;;;;;;;3.87;3.67;;;;;;;;;;5029975;28;20167;-49
2022/07/24 14:24:28;;;;;;;4.17;3.83;;;;;;;;;;5041428;28;20484;-49
2022/07/24 14:26:54;;;;;;;3.57;3.37;;;;;;;;;;5040773;28;20182;-48
2022/07/24 14:29:20;;;;;;;4.27;3.90;;;;;;;;;;5030340;28;20195;-49
2022/07/24 14:31:46;;;;;;;3.80;3.50;;;;;;;;;;5040724;28;20487;-48
2022/07/24 14:34:12;;;;;;;4.00;3.70;;;;;;;;;;5047222;28;20461;-49
2022/07/24 14:36:39;;;;;;;3.90;3.60;;;;;;;;;;5043897;28;20425;-49
2022/07/24 14:39:05;;;;;;;3.53;3.33;;;;;;;;;;5046422;28;20229;-49
2022/07/24 14:41:31;;;;;;;3.87;3.57;;;;;;;;;;5044448;28;20410;-49
2022/07/24 14:43:57;;;;;;;4.23;3.83;;;;;;;;;;5036484;28;20441;-51
2022/07/24 14:46:23;;;;;;;7.90;4.03;;;;;;;;;;5035750;28;20274;-50